sensor_id;sensor_type;location;lat;lon;timestamp;P1;durP1;ratioP1;P2;durP2;ratioP2
42770;SDS011;28426;42.872;25.314;2023-08-24T00:00:54;10.07;;;8.02;;
42770;SDS011;28426;42.872;25.314;2023-08-24T00:03:28;10.60;;;7.40;;
42770;SDS011;28426;42.872;25.314;2023-08-24T00:06:00;8.50;;;7.30;;
42770;SDS011;28426;42.872;25.314;2023-08-24T00:08:32;9.82;;;7.22;;
42770;SDS011;28426;42.872;25.314;2023-08-24T00:11:05;12.10;;;8.23;;
42770;SDS011;28426;42.872;25.314;2023-08-24T00:13:36;14.23;;;7.65;;
42770;SDS011;28426;42.872;25.314;2023-08-24T00:16:07;9.52;;;7.70;;
42770;SDS011;28426;42.872;25.314;2023-08-24T00:18:38;9.40;;;8.07;;
42770;SDS011;28426;42.872;25.314;2023-08-24T00:21:09;11.75;;;8.20;;
42770;SDS011;28426;42.872;25.314;2023-08-24T00:23:40;10.43;;;7.82;;
42770;SDS011;28426;42.872;25.314;2023-08-24T00:26:14;12.82;;;7.45;;
42770;SDS011;28426;42.872;25.314;2023-08-24T00:28:45;11.65;;;8.13;;
42770;SDS011;28426;42.872;25.314;2023-08-24T00:31:16;11.52;;;8.00;;
42770;SDS011;28426;42.872;25.314;2023-08-24T00:33:48;10.30;;;8.07;;
42770;SDS011;28426;42.872;25.314;2023-08-24T00:36:20;9.85;;;7.80;;
42770;SDS011;28426;42.872;25.314;2023-08-24T00:38:51;11.35;;;7.93;;
42770;SDS011;28426;42.872;25.314;2023-08-24T00:41:24;12.35;;;8.50;;
42770;SDS011;28426;42.872;25.314;2023-08-24T00:43:55;10.55;;;8.00;;
42770;SDS011;28426;42.872;25.314;2023-08-24T00:46:26;9.68;;;8.02;;
42770;SDS011;28426;42.872;25.314;2023-08-24T00:48:57;10.27;;;8.10;;
42770;SDS011;28426;42.872;25.314;2023-08-24T00:51:28;10.40;;;7.88;;
42770;SDS011;28426;42.872;25.314;2023-08-24T00:53:59;9.52;;;7.85;;
42770;SDS011;28426;42.872;25.314;2023-08-24T00:56:33;11.98;;;7.82;;
42770;SDS011;28426;42.872;25.314;2023-08-24T00:59:04;10.82;;;8.27;;
42770;SDS011;28426;42.872;25.314;2023-08-24T01:01:35;9.68;;;7.63;;
42770;SDS011;28426;42.872;25.314;2023-08-24T01:04:06;13.35;;;8.32;;
42770;SDS011;28426;42.872;25.314;2023-08-24T01:06:38;11.25;;;8.00;;
42770;SDS011;28426;42.872;25.314;2023-08-24T01:09:09;9.90;;;7.80;;
42770;SDS011;28426;42.872;25.314;2023-08-24T01:11:45;11.95;;;7.80;;
42770;SDS011;28426;42.872;25.314;2023-08-24T01:14:29;11.82;;;8.23;;
42770;SDS011;28426;42.872;25.314;2023-08-24T01:17:07;12.93;;;8.55;;
42770;SDS011;28426;42.872;25.314;2023-08-24T01:19:42;11.60;;;8.57;;
42770;SDS011;28426;42.872;25.314;2023-08-24T01:22:20;9.90;;;7.93;;
42770;SDS011;28426;42.872;25.314;2023-08-24T01:25:05;10.00;;;8.70;;
42770;SDS011;28426;42.872;25.314;2023-08-24T01:27:44;10.50;;;8.50;;
42770;SDS011;28426;42.872;25.314;2023-08-24T01:30:18;11.25;;;8.50;;
42770;SDS011;28426;42.872;25.314;2023-08-24T01:32:50;11.75;;;8.15;;
42770;SDS011;28426;42.872;25.314;2023-08-24T01:35:21;9.77;;;8.70;;
42770;SDS011;28426;42.872;25.314;2023-08-24T01:37:51;9.90;;;8.85;;
42770;SDS011;28426;42.872;25.314;2023-08-24T01:40:23;10.63;;;8.45;;
42770;SDS011;28426;42.872;25.314;2023-08-24T01:43:04;10.57;;;8.35;;
42770;SDS011;28426;42.872;25.314;2023-08-24T01:45:37;11.20;;;9.13;;
42770;SDS011;28426;42.872;25.314;2023-08-24T01:48:11;13.97;;;9.03;;
42770;SDS011;28426;42.872;25.314;2023-08-24T01:50:43;12.00;;;8.82;;
42770;SDS011;28426;42.872;25.314;2023-08-24T01:53:15;10.57;;;9.48;;
42770;SDS011;28426;42.872;25.314;2023-08-24T01:55:46;11.63;;;9.30;;
42770;SDS011;28426;42.872;25.314;2023-08-24T01:58:20;12.18;;;9.10;;
42770;SDS011;28426;42.872;25.314;2023-08-24T02:00:51;13.50;;;9.45;;
42770;SDS011;28426;42.872;25.314;2023-08-24T02:03:22;12.82;;;9.38;;
42770;SDS011;28426;42.872;25.314;2023-08-24T02:05:53;10.70;;;9.43;;
42770;SDS011;28426;42.872;25.314;2023-08-24T02:08:24;11.77;;;9.30;;
42770;SDS011;28426;42.872;25.314;2023-08-24T02:10:54;13.48;;;9.57;;
42770;SDS011;28426;42.872;25.314;2023-08-24T02:13:28;15.63;;;9.25;;
42770;SDS011;28426;42.872;25.314;2023-08-24T02:16:02;13.82;;;10.10;;
42770;SDS011;28426;42.872;25.314;2023-08-24T02:18:36;12.55;;;9.95;;
42770;SDS011;28426;42.872;25.314;2023-08-24T02:21:07;14.27;;;9.73;;
42770;SDS011;28426;42.872;25.314;2023-08-24T02:23:39;12.73;;;10.25;;
42770;SDS011;28426;42.872;25.314;2023-08-24T02:26:10;13.52;;;9.50;;
42770;SDS011;28426;42.872;25.314;2023-08-24T02:28:44;13.18;;;9.40;;
42770;SDS011;28426;42.872;25.314;2023-08-24T02:31:15;12.45;;;9.10;;
42770;SDS011;28426;42.872;25.314;2023-08-24T02:33:46;11.88;;;9.20;;
42770;SDS011;28426;42.872;25.314;2023-08-24T02:36:17;12.32;;;9.90;;
42770;SDS011;28426;42.872;25.314;2023-08-24T02:38:47;12.00;;;9.57;;
42770;SDS011;28426;42.872;25.314;2023-08-24T02:41:18;13.63;;;10.05;;
42770;SDS011;28426;42.872;25.314;2023-08-24T02:43:52;12.25;;;9.20;;
42770;SDS011;28426;42.872;25.314;2023-08-24T02:46:23;12.63;;;9.63;;
42770;SDS011;28426;42.872;25.314;2023-08-24T02:48:54;15.98;;;10.30;;
42770;SDS011;28426;42.872;25.314;2023-08-24T02:51:24;14.10;;;9.40;;
42770;SDS011;28426;42.872;25.314;2023-08-24T02:53:55;13.00;;;9.43;;
42770;SDS011;28426;42.872;25.314;2023-08-24T02:56:26;11.40;;;9.15;;
42770;SDS011;28426;42.872;25.314;2023-08-24T02:59:00;11.25;;;9.27;;
42770;SDS011;28426;42.872;25.314;2023-08-24T03:01:31;14.15;;;9.60;;
42770;SDS011;28426;42.872;25.314;2023-08-24T03:04:01;13.27;;;9.57;;
42770;SDS011;28426;42.872;25.314;2023-08-24T03:06:33;14.60;;;9.90;;
42770;SDS011;28426;42.872;25.314;2023-08-24T03:09:04;10.32;;;9.23;;
42770;SDS011;28426;42.872;25.314;2023-08-24T03:11:35;13.65;;;9.57;;
42770;SDS011;28426;42.872;25.314;2023-08-24T03:14:08;11.63;;;9.23;;
42770;SDS011;28426;42.872;25.314;2023-08-24T03:16:39;13.70;;;9.43;;
42770;SDS011;28426;42.872;25.314;2023-08-24T03:19:10;12.55;;;9.40;;
42770;SDS011;28426;42.872;25.314;2023-08-24T03:21:44;12.85;;;9.32;;
42770;SDS011;28426;42.872;25.314;2023-08-24T03:24:15;13.48;;;9.88;;
42770;SDS011;28426;42.872;25.314;2023-08-24T03:26:46;11.25;;;9.25;;
42770;SDS011;28426;42.872;25.314;2023-08-24T03:29:20;13.93;;;9.68;;
42770;SDS011;28426;42.872;25.314;2023-08-24T03:31:52;15.25;;;9.25;;
42770;SDS011;28426;42.872;25.314;2023-08-24T03:34:23;17.00;;;10.48;;
42770;SDS011;28426;42.872;25.314;2023-08-24T03:36:54;13.73;;;9.88;;
42770;SDS011;28426;42.872;25.314;2023-08-24T03:39:25;14.57;;;10.27;;
42770;SDS011;28426;42.872;25.314;2023-08-24T03:41:56;11.23;;;9.88;;
42770;SDS011;28426;42.872;25.314;2023-08-24T03:44:29;11.45;;;9.55;;
42770;SDS011;28426;42.872;25.314;2023-08-24T03:47:00;13.32;;;9.45;;
42770;SDS011;28426;42.872;25.314;2023-08-24T03:49:31;12.80;;;10.05;;
42770;SDS011;28426;42.872;25.314;2023-08-24T03:52:03;13.52;;;9.85;;
42770;SDS011;28426;42.872;25.314;2023-08-24T03:54:34;15.75;;;9.65;;
42770;SDS011;28426;42.872;25.314;2023-08-24T03:57:05;11.55;;;9.48;;
42770;SDS011;28426;42.872;25.314;2023-08-24T03:59:38;17.23;;;9.32;;
42770;SDS011;28426;42.872;25.314;2023-08-24T04:02:10;13.27;;;9.13;;
42770;SDS011;28426;42.872;25.314;2023-08-24T04:04:41;13.05;;;9.45;;
42770;SDS011;28426;42.872;25.314;2023-08-24T04:07:12;15.23;;;9.15;;
42770;SDS011;28426;42.872;25.314;2023-08-24T04:09:43;18.77;;;10.68;;
42770;SDS011;28426;42.872;25.314;2023-08-24T04:12:13;24.23;;;15.48;;
42770;SDS011;28426;42.872;25.314;2023-08-24T04:14:47;11.90;;;9.82;;
42770;SDS011;28426;42.872;25.314;2023-08-24T04:17:19;13.90;;;9.25;;
42770;SDS011;28426;42.872;25.314;2023-08-24T04:19:50;12.80;;;9.40;;
42770;SDS011;28426;42.872;25.314;2023-08-24T04:22:21;14.30;;;10.63;;
42770;SDS011;28426;42.872;25.314;2023-08-24T04:24:52;14.50;;;9.32;;
42770;SDS011;28426;42.872;25.314;2023-08-24T04:27:23;11.10;;;8.70;;
42770;SDS011;28426;42.872;25.314;2023-08-24T04:29:57;12.23;;;7.90;;
42770;SDS011;28426;42.872;25.314;2023-08-24T04:32:32;11.90;;;8.50;;
42770;SDS011;28426;42.872;25.314;2023-08-24T04:35:03;16.80;;;8.77;;
42770;SDS011;28426;42.872;25.314;2023-08-24T04:37:35;11.57;;;7.70;;
42770;SDS011;28426;42.872;25.314;2023-08-24T04:40:06;10.85;;;7.25;;
42770;SDS011;28426;42.872;25.314;2023-08-24T04:42:35;8.32;;;7.30;;
42770;SDS011;28426;42.872;25.314;2023-08-24T04:45:09;11.40;;;7.85;;
42770;SDS011;28426;42.872;25.314;2023-08-24T04:47:40;13.93;;;8.03;;
42770;SDS011;28426;42.872;25.314;2023-08-24T04:50:11;10.52;;;7.60;;
42770;SDS011;28426;42.872;25.314;2023-08-24T04:52:41;14.27;;;7.90;;
42770;SDS011;28426;42.872;25.314;2023-08-24T04:55:12;11.65;;;7.60;;
42770;SDS011;28426;42.872;25.314;2023-08-24T04:57:45;12.70;;;8.88;;
42770;SDS011;28426;42.872;25.314;2023-08-24T05:00:18;11.48;;;8.00;;
42770;SDS011;28426;42.872;25.314;2023-08-24T05:02:50;10.60;;;7.82;;
42770;SDS011;28426;42.872;25.314;2023-08-24T05:05:21;14.80;;;8.40;;
42770;SDS011;28426;42.872;25.314;2023-08-24T05:07:53;9.57;;;7.75;;
42770;SDS011;28426;42.872;25.314;2023-08-24T05:10:25;10.50;;;7.97;;
42770;SDS011;28426;42.872;25.314;2023-08-24T05:12:56;12.50;;;8.07;;
42770;SDS011;28426;42.872;25.314;2023-08-24T05:15:30;13.10;;;8.55;;
42770;SDS011;28426;42.872;25.314;2023-08-24T05:18:01;10.82;;;8.35;;
42770;SDS011;28426;42.872;25.314;2023-08-24T05:20:33;12.52;;;8.55;;
42770;SDS011;28426;42.872;25.314;2023-08-24T05:23:04;12.40;;;8.35;;
42770;SDS011;28426;42.872;25.314;2023-08-24T05:25:35;12.80;;;8.77;;
42770;SDS011;28426;42.872;25.314;2023-08-24T05:28:05;10.07;;;8.48;;
42770;SDS011;28426;42.872;25.314;2023-08-24T05:30:39;12.15;;;9.18;;
42770;SDS011;28426;42.872;25.314;2023-08-24T05:33:10;11.43;;;9.27;;
42770;SDS011;28426;42.872;25.314;2023-08-24T05:35:40;13.75;;;10.10;;
42770;SDS011;28426;42.872;25.314;2023-08-24T05:38:12;12.43;;;9.20;;
42770;SDS011;28426;42.872;25.314;2023-08-24T05:40:43;12.07;;;9.13;;
42770;SDS011;28426;42.872;25.314;2023-08-24T05:43:18;14.80;;;9.43;;
42770;SDS011;28426;42.872;25.314;2023-08-24T05:45:51;9.95;;;8.65;;
42770;SDS011;28426;42.872;25.314;2023-08-24T05:48:22;14.00;;;9.25;;
42770;SDS011;28426;42.872;25.314;2023-08-24T05:50:50;12.43;;;9.07;;
42770;SDS011;28426;42.872;25.314;2023-08-24T05:53:21;15.48;;;9.80;;
42770;SDS011;28426;42.872;25.314;2023-08-24T05:55:52;12.30;;;9.30;;
42770;SDS011;28426;42.872;25.314;2023-08-24T05:58:27;11.48;;;9.57;;
42770;SDS011;28426;42.872;25.314;2023-08-24T06:01:01;12.02;;;9.90;;
42770;SDS011;28426;42.872;25.314;2023-08-24T06:03:32;13.93;;;10.30;;
42770;SDS011;28426;42.872;25.314;2023-08-24T06:06:03;15.85;;;9.30;;
42770;SDS011;28426;42.872;25.314;2023-08-24T06:08:36;15.73;;;10.23;;
42770;SDS011;28426;42.872;25.314;2023-08-24T06:11:07;14.20;;;10.02;;
42770;SDS011;28426;42.872;25.314;2023-08-24T06:13:37;12.02;;;10.18;;
42770;SDS011;28426;42.872;25.314;2023-08-24T06:16:11;11.93;;;10.63;;
42770;SDS011;28426;42.872;25.314;2023-08-24T06:18:42;16.27;;;11.02;;
42770;SDS011;28426;42.872;25.314;2023-08-24T06:21:12;13.40;;;10.90;;
42770;SDS011;28426;42.872;25.314;2023-08-24T06:23:43;14.57;;;11.40;;
42770;SDS011;28426;42.872;25.314;2023-08-24T06:26:14;16.15;;;11.40;;
42770;SDS011;28426;42.872;25.314;2023-08-24T06:28:45;17.40;;;12.75;;
42770;SDS011;28426;42.872;25.314;2023-08-24T06:31:18;16.17;;;11.57;;
42770;SDS011;28426;42.872;25.314;2023-08-24T06:33:49;16.90;;;12.65;;
42770;SDS011;28426;42.872;25.314;2023-08-24T06:36:20;14.45;;;11.43;;
42770;SDS011;28426;42.872;25.314;2023-08-24T06:38:51;16.75;;;12.60;;
42770;SDS011;28426;42.872;25.314;2023-08-24T06:41:21;18.15;;;11.73;;
42770;SDS011;28426;42.872;25.314;2023-08-24T06:43:52;16.23;;;12.15;;
42770;SDS011;28426;42.872;25.314;2023-08-24T06:46:26;17.88;;;12.32;;
42770;SDS011;28426;42.872;25.314;2023-08-24T06:48:57;13.75;;;11.43;;
42770;SDS011;28426;42.872;25.314;2023-08-24T06:51:28;18.80;;;11.75;;
42770;SDS011;28426;42.872;25.314;2023-08-24T06:53:59;12.30;;;10.27;;
42770;SDS011;28426;42.872;25.314;2023-08-24T06:56:30;14.18;;;10.40;;
42770;SDS011;28426;42.872;25.314;2023-08-24T06:59:00;16.10;;;10.15;;
42770;SDS011;28426;42.872;25.314;2023-08-24T07:01:35;10.60;;;8.30;;
42770;SDS011;28426;42.872;25.314;2023-08-24T07:04:06;11.87;;;8.80;;
42770;SDS011;28426;42.872;25.314;2023-08-24T07:06:37;12.27;;;9.10;;
42770;SDS011;28426;42.872;25.314;2023-08-24T07:09:09;11.43;;;8.32;;
42770;SDS011;28426;42.872;25.314;2023-08-24T07:11:40;12.70;;;8.63;;
42770;SDS011;28426;42.872;25.314;2023-08-24T07:14:11;14.55;;;8.60;;
42770;SDS011;28426;42.872;25.314;2023-08-24T07:16:44;20.25;;;9.35;;
42770;SDS011;28426;42.872;25.314;2023-08-24T07:19:15;12.13;;;7.82;;
42770;SDS011;28426;42.872;25.314;2023-08-24T07:21:46;22.30;;;9.90;;
42770;SDS011;28426;42.872;25.314;2023-08-24T07:24:17;21.85;;;9.23;;
42770;SDS011;28426;42.872;25.314;2023-08-24T07:27:10;14.60;;;9.00;;
42770;SDS011;28426;42.872;25.314;2023-08-24T07:29:41;13.02;;;7.55;;
42770;SDS011;28426;42.872;25.314;2023-08-24T07:32:15;11.15;;;7.53;;
42770;SDS011;28426;42.872;25.314;2023-08-24T07:34:46;14.93;;;7.70;;
42770;SDS011;28426;42.872;25.314;2023-08-24T07:37:17;14.05;;;7.93;;
42770;SDS011;28426;42.872;25.314;2023-08-24T07:39:48;11.68;;;7.00;;
42770;SDS011;28426;42.872;25.314;2023-08-24T07:42:19;11.85;;;7.15;;
42770;SDS011;28426;42.872;25.314;2023-08-24T07:44:51;11.13;;;7.40;;
42770;SDS011;28426;42.872;25.314;2023-08-24T07:47:24;16.50;;;7.53;;
42770;SDS011;28426;42.872;25.314;2023-08-24T07:49:55;10.35;;;6.60;;
42770;SDS011;28426;42.872;25.314;2023-08-24T07:52:26;9.32;;;6.60;;
42770;SDS011;28426;42.872;25.314;2023-08-24T07:54:57;11.82;;;6.88;;
42770;SDS011;28426;42.872;25.314;2023-08-24T07:57:31;11.68;;;6.20;;
42770;SDS011;28426;42.872;25.314;2023-08-24T08:00:02;8.50;;;6.03;;
42770;SDS011;28426;42.872;25.314;2023-08-24T08:02:42;10.10;;;7.32;;
42770;SDS011;28426;42.872;25.314;2023-08-24T08:05:13;7.75;;;5.88;;
42770;SDS011;28426;42.872;25.314;2023-08-24T08:07:44;8.38;;;6.03;;
42770;SDS011;28426;42.872;25.314;2023-08-24T08:10:15;9.35;;;6.30;;
42770;SDS011;28426;42.872;25.314;2023-08-24T08:12:47;9.63;;;5.60;;
42770;SDS011;28426;42.872;25.314;2023-08-24T08:15:18;7.78;;;5.32;;
42770;SDS011;28426;42.872;25.314;2023-08-24T08:17:52;8.80;;;5.82;;
42770;SDS011;28426;42.872;25.314;2023-08-24T08:20:23;8.77;;;5.82;;
42770;SDS011;28426;42.872;25.314;2023-08-24T08:22:54;8.95;;;6.40;;
42770;SDS011;28426;42.872;25.314;2023-08-24T08:25:25;6.95;;;5.50;;
42770;SDS011;28426;42.872;25.314;2023-08-24T08:27:59;9.60;;;5.80;;
42770;SDS011;28426;42.872;25.314;2023-08-24T08:30:29;12.52;;;6.75;;
42770;SDS011;28426;42.872;25.314;2023-08-24T08:33:03;9.60;;;6.07;;
42770;SDS011;28426;42.872;25.314;2023-08-24T08:35:35;8.30;;;5.88;;
42770;SDS011;28426;42.872;25.314;2023-08-24T08:38:08;8.45;;;5.97;;
42770;SDS011;28426;42.872;25.314;2023-08-24T08:40:39;6.88;;;5.90;;
42770;SDS011;28426;42.872;25.314;2023-08-24T08:43:10;8.93;;;6.55;;
42770;SDS011;28426;42.872;25.314;2023-08-24T08:45:42;8.20;;;6.45;;
42770;SDS011;28426;42.872;25.314;2023-08-24T08:48:15;8.73;;;6.45;;
42770;SDS011;28426;42.872;25.314;2023-08-24T08:50:46;7.67;;;6.07;;
42770;SDS011;28426;42.872;25.314;2023-08-24T08:53:21;10.20;;;6.25;;
42770;SDS011;28426;42.872;25.314;2023-08-24T08:55:54;9.90;;;6.47;;
42770;SDS011;28426;42.872;25.314;2023-08-24T08:58:31;8.45;;;6.38;;
42770;SDS011;28426;42.872;25.314;2023-08-24T09:01:03;9.07;;;6.50;;
42770;SDS011;28426;42.872;25.314;2023-08-24T09:03:37;11.10;;;7.00;;
42770;SDS011;28426;42.872;25.314;2023-08-24T09:06:10;8.95;;;7.03;;
42770;SDS011;28426;42.872;25.314;2023-08-24T09:08:41;9.73;;;6.43;;
42770;SDS011;28426;42.872;25.314;2023-08-24T09:11:12;10.02;;;6.70;;
42770;SDS011;28426;42.872;25.314;2023-08-24T09:13:45;8.63;;;6.70;;
42770;SDS011;28426;42.872;25.314;2023-08-24T09:16:16;11.38;;;7.30;;
42770;SDS011;28426;42.872;25.314;2023-08-24T09:18:50;11.23;;;6.85;;
42770;SDS011;28426;42.872;25.314;2023-08-24T09:21:21;9.00;;;7.60;;
42770;SDS011;28426;42.872;25.314;2023-08-24T09:23:54;11.90;;;7.05;;
42770;SDS011;28426;42.872;25.314;2023-08-24T09:26:29;9.00;;;8.10;;
42770;SDS011;28426;42.872;25.314;2023-08-24T09:29:05;13.02;;;7.88;;
42770;SDS011;28426;42.872;25.314;2023-08-24T09:31:41;11.90;;;7.38;;
42770;SDS011;28426;42.872;25.314;2023-08-24T09:34:15;12.85;;;8.57;;
42770;SDS011;28426;42.872;25.314;2023-08-24T09:36:49;8.95;;;7.60;;
42770;SDS011;28426;42.872;25.314;2023-08-24T09:39:20;9.23;;;7.93;;
42770;SDS011;28426;42.872;25.314;2023-08-24T09:41:51;8.73;;;7.28;;
42770;SDS011;28426;42.872;25.314;2023-08-24T09:44:22;10.70;;;7.68;;
42770;SDS011;28426;42.872;25.314;2023-08-24T09:46:53;10.60;;;8.10;;
42770;SDS011;28426;42.872;25.314;2023-08-24T09:49:27;12.07;;;7.63;;
42770;SDS011;28426;42.872;25.314;2023-08-24T09:51:59;9.38;;;7.90;;
42770;SDS011;28426;42.872;25.314;2023-08-24T09:54:30;13.13;;;8.10;;
42770;SDS011;28426;42.872;25.314;2023-08-24T09:57:06;11.15;;;8.05;;
42770;SDS011;28426;42.872;25.314;2023-08-24T09:59:39;9.88;;;7.72;;
42770;SDS011;28426;42.872;25.314;2023-08-24T10:04:48;15.05;;;7.28;;
42770;SDS011;28426;42.872;25.314;2023-08-24T10:07:25;13.82;;;7.15;;
42770;SDS011;28426;42.872;25.314;2023-08-24T10:09:58;8.75;;;7.43;;
42770;SDS011;28426;42.872;25.314;2023-08-24T10:12:46;9.43;;;6.95;;
42770;SDS011;28426;42.872;25.314;2023-08-24T10:15:20;11.00;;;7.20;;
42770;SDS011;28426;42.872;25.314;2023-08-24T10:17:52;9.95;;;7.00;;
42770;SDS011;28426;42.872;25.314;2023-08-24T10:20:27;10.52;;;7.05;;
42770;SDS011;28426;42.872;25.314;2023-08-24T10:22:59;11.65;;;7.47;;
42770;SDS011;28426;42.872;25.314;2023-08-24T10:25:31;12.10;;;7.53;;
42770;SDS011;28426;42.872;25.314;2023-08-24T10:28:03;10.15;;;7.45;;
42770;SDS011;28426;42.872;25.314;2023-08-24T10:30:37;9.25;;;7.00;;
42770;SDS011;28426;42.872;25.314;2023-08-24T10:33:11;10.10;;;7.35;;
42770;SDS011;28426;42.872;25.314;2023-08-24T10:35:47;10.88;;;7.22;;
42770;SDS011;28426;42.872;25.314;2023-08-24T10:38:22;11.70;;;7.35;;
42770;SDS011;28426;42.872;25.314;2023-08-24T10:40:55;11.02;;;7.68;;
42770;SDS011;28426;42.872;25.314;2023-08-24T10:43:34;10.27;;;7.07;;
42770;SDS011;28426;42.872;25.314;2023-08-24T10:46:03;8.55;;;6.72;;
42770;SDS011;28426;42.872;25.314;2023-08-24T10:51:34;11.43;;;6.75;;
42770;SDS011;28426;42.872;25.314;2023-08-24T10:54:14;9.10;;;7.10;;
42770;SDS011;28426;42.872;25.314;2023-08-24T10:56:52;11.57;;;7.03;;
42770;SDS011;28426;42.872;25.314;2023-08-24T10:59:26;8.15;;;6.57;;
42770;SDS011;28426;42.872;25.314;2023-08-24T11:02:18;8.20;;;7.25;;
42770;SDS011;28426;42.872;25.314;2023-08-24T11:07:51;10.68;;;6.97;;
42770;SDS011;28426;42.872;25.314;2023-08-24T11:10:23;10.70;;;7.15;;
42770;SDS011;28426;42.872;25.314;2023-08-24T11:15:44;8.85;;;6.60;;
42770;SDS011;28426;42.872;25.314;2023-08-24T11:18:22;15.45;;;7.90;;
42770;SDS011;28426;42.872;25.314;2023-08-24T11:20:55;11.93;;;7.03;;
42770;SDS011;28426;42.872;25.314;2023-08-24T11:23:32;18.77;;;6.88;;
42770;SDS011;28426;42.872;25.314;2023-08-24T11:26:04;10.65;;;6.18;;
42770;SDS011;28426;42.872;25.314;2023-08-24T11:28:37;15.30;;;9.07;;
42770;SDS011;28426;42.872;25.314;2023-08-24T11:31:08;18.50;;;7.90;;
42770;SDS011;28426;42.872;25.314;2023-08-24T11:33:39;12.35;;;6.57;;
42770;SDS011;28426;42.872;25.314;2023-08-24T11:36:11;9.88;;;6.32;;
42770;SDS011;28426;42.872;25.314;2023-08-24T11:38:45;13.07;;;7.03;;
42770;SDS011;28426;42.872;25.314;2023-08-24T11:41:18;15.85;;;6.95;;
42770;SDS011;28426;42.872;25.314;2023-08-24T11:43:49;12.43;;;7.38;;
42770;SDS011;28426;42.872;25.314;2023-08-24T11:49:15;19.20;;;9.35;;
42770;SDS011;28426;42.872;25.314;2023-08-24T11:51:46;22.38;;;8.90;;
42770;SDS011;28426;42.872;25.314;2023-08-24T11:54:22;13.30;;;8.18;;
42770;SDS011;28426;42.872;25.314;2023-08-24T11:56:53;15.45;;;9.00;;
42770;SDS011;28426;42.872;25.314;2023-08-24T11:59:24;17.25;;;10.10;;
42770;SDS011;28426;42.872;25.314;2023-08-24T12:01:55;13.75;;;8.75;;
42770;SDS011;28426;42.872;25.314;2023-08-24T12:04:26;19.13;;;9.82;;
42770;SDS011;28426;42.872;25.314;2023-08-24T12:06:57;15.85;;;9.10;;
42770;SDS011;28426;42.872;25.314;2023-08-24T12:09:31;12.25;;;9.20;;
42770;SDS011;28426;42.872;25.314;2023-08-24T12:12:02;16.20;;;9.85;;
42770;SDS011;28426;42.872;25.314;2023-08-24T12:14:39;11.32;;;9.40;;
42770;SDS011;28426;42.872;25.314;2023-08-24T12:17:11;13.82;;;9.65;;
42770;SDS011;28426;42.872;25.314;2023-08-24T12:19:42;14.55;;;9.73;;
42770;SDS011;28426;42.872;25.314;2023-08-24T12:22:14;14.13;;;9.70;;
42770;SDS011;28426;42.872;25.314;2023-08-24T12:24:48;12.05;;;9.55;;
42770;SDS011;28426;42.872;25.314;2023-08-24T12:27:18;14.13;;;10.25;;
42770;SDS011;28426;42.872;25.314;2023-08-24T12:29:50;11.63;;;9.75;;
42770;SDS011;28426;42.872;25.314;2023-08-24T12:32:21;11.38;;;9.65;;
42770;SDS011;28426;42.872;25.314;2023-08-24T12:34:54;13.00;;;9.45;;
42770;SDS011;28426;42.872;25.314;2023-08-24T12:37:24;13.38;;;10.23;;
42770;SDS011;28426;42.872;25.314;2023-08-24T12:39:58;11.93;;;9.57;;
42770;SDS011;28426;42.872;25.314;2023-08-24T12:42:30;11.57;;;9.48;;
42770;SDS011;28426;42.872;25.314;2023-08-24T12:45:04;14.55;;;9.93;;
42770;SDS011;28426;42.872;25.314;2023-08-24T12:47:35;12.25;;;8.95;;
42770;SDS011;28426;42.872;25.314;2023-08-24T12:50:07;13.90;;;9.32;;
42770;SDS011;28426;42.872;25.314;2023-08-24T12:52:38;12.10;;;9.40;;
42770;SDS011;28426;42.872;25.314;2023-08-24T12:55:11;15.10;;;9.52;;
42770;SDS011;28426;42.872;25.314;2023-08-24T12:57:43;17.05;;;9.98;;
42770;SDS011;28426;42.872;25.314;2023-08-24T13:00:14;13.68;;;9.63;;
42770;SDS011;28426;42.872;25.314;2023-08-24T13:02:45;11.88;;;9.25;;
42770;SDS011;28426;42.872;25.314;2023-08-24T13:05:17;10.13;;;8.35;;
42770;SDS011;28426;42.872;25.314;2023-08-24T13:07:48;10.13;;;8.93;;
42770;SDS011;28426;42.872;25.314;2023-08-24T13:10:22;13.25;;;8.73;;
42770;SDS011;28426;42.872;25.314;2023-08-24T13:12:53;11.60;;;9.33;;
42770;SDS011;28426;42.872;25.314;2023-08-24T13:15:24;19.90;;;9.88;;
42770;SDS011;28426;42.872;25.314;2023-08-24T13:17:55;20.17;;;9.90;;
42770;SDS011;28426;42.872;25.314;2023-08-24T13:20:26;15.20;;;10.27;;
42770;SDS011;28426;42.872;25.314;2023-08-24T13:22:57;14.18;;;9.90;;
42770;SDS011;28426;42.872;25.314;2023-08-24T13:25:31;11.52;;;9.40;;
42770;SDS011;28426;42.872;25.314;2023-08-24T13:28:02;12.50;;;9.75;;
42770;SDS011;28426;42.872;25.314;2023-08-24T13:30:33;19.00;;;9.90;;
42770;SDS011;28426;42.872;25.314;2023-08-24T13:33:04;17.63;;;10.05;;
42770;SDS011;28426;42.872;25.314;2023-08-24T13:35:35;22.73;;;10.38;;
42770;SDS011;28426;42.872;25.314;2023-08-24T13:38:06;21.15;;;14.68;;
42770;SDS011;28426;42.872;25.314;2023-08-24T13:40:40;18.85;;;11.85;;
42770;SDS011;28426;42.872;25.314;2023-08-24T13:43:14;17.10;;;10.45;;
42770;SDS011;28426;42.872;25.314;2023-08-24T13:45:47;16.98;;;10.77;;
42770;SDS011;28426;42.872;25.314;2023-08-24T13:48:19;13.35;;;10.10;;
42770;SDS011;28426;42.872;25.314;2023-08-24T13:50:51;16.92;;;10.70;;
42770;SDS011;28426;42.872;25.314;2023-08-24T13:53:24;25.92;;;11.98;;
42770;SDS011;28426;42.872;25.314;2023-08-24T13:55:57;15.45;;;10.65;;
42770;SDS011;28426;42.872;25.314;2023-08-24T13:58:28;14.32;;;10.10;;
42770;SDS011;28426;42.872;25.314;2023-08-24T14:00:59;14.60;;;10.10;;
42770;SDS011;28426;42.872;25.314;2023-08-24T14:03:30;15.52;;;9.75;;
42770;SDS011;28426;42.872;25.314;2023-08-24T14:06:02;15.55;;;10.25;;
42770;SDS011;28426;42.872;25.314;2023-08-24T14:08:33;16.55;;;11.57;;
42770;SDS011;28426;42.872;25.314;2023-08-24T14:11:06;16.58;;;11.63;;
42770;SDS011;28426;42.872;25.314;2023-08-24T14:13:41;16.20;;;10.70;;
42770;SDS011;28426;42.872;25.314;2023-08-24T14:16:11;15.20;;;10.05;;
42770;SDS011;28426;42.872;25.314;2023-08-24T14:18:42;17.58;;;10.55;;
42770;SDS011;28426;42.872;25.314;2023-08-24T14:21:13;16.70;;;11.35;;
42770;SDS011;28426;42.872;25.314;2023-08-24T14:24:02;14.25;;;10.40;;
42770;SDS011;28426;42.872;25.314;2023-08-24T14:26:36;16.00;;;8.90;;
42770;SDS011;28426;42.872;25.314;2023-08-24T14:29:13;15.45;;;9.10;;
42770;SDS011;28426;42.872;25.314;2023-08-24T14:31:44;12.85;;;8.93;;
42770;SDS011;28426;42.872;25.314;2023-08-24T14:34:15;11.68;;;9.55;;
42770;SDS011;28426;42.872;25.314;2023-08-24T14:36:46;15.00;;;9.40;;
42770;SDS011;28426;42.872;25.314;2023-08-24T14:39:16;14.25;;;9.10;;
42770;SDS011;28426;42.872;25.314;2023-08-24T14:41:50;11.20;;;9.20;;
42770;SDS011;28426;42.872;25.314;2023-08-24T14:44:21;15.23;;;9.40;;
42770;SDS011;28426;42.872;25.314;2023-08-24T14:46:52;11.45;;;8.70;;
42770;SDS011;28426;42.872;25.314;2023-08-24T14:49:23;13.73;;;9.05;;
42770;SDS011;28426;42.872;25.314;2023-08-24T14:51:55;14.13;;;9.13;;
42770;SDS011;28426;42.872;25.314;2023-08-24T14:54:26;11.75;;;9.25;;
42770;SDS011;28426;42.872;25.314;2023-08-24T14:57:00;15.18;;;10.07;;
42770;SDS011;28426;42.872;25.314;2023-08-24T14:59:31;13.77;;;9.07;;
42770;SDS011;28426;42.872;25.314;2023-08-24T15:02:03;12.23;;;9.70;;
42770;SDS011;28426;42.872;25.314;2023-08-24T15:04:34;16.40;;;9.80;;